sensor_id;sensor_type;location;lat;lon;timestamp;pressure;altitude;pressure_sealevel;temperature;humidity
45523;BME280;31254;51.680;5.394;2024-02-26T00:02:30;99823.72;;;8.15;93.79
45523;BME280;31254;51.680;5.394;2024-02-26T00:05:00;99825.25;;;8.18;93.97
45523;BME280;31254;51.680;5.394;2024-02-26T00:07:26;99811.63;;;8.10;93.96
45523;BME280;31254;51.680;5.394;2024-02-26T00:10:03;99860.66;;;8.44;94.42
45523;BME280;31254;51.680;5.394;2024-02-26T00:12:30;99900.56;;;8.70;94.04
45523;BME280;31254;51.680;5.394;2024-02-26T00:14:57;99600.28;;;6.74;93.66
45523;BME280;31254;51.680;5.394;2024-02-26T00:17:25;99912.97;;;8.72;93.75
45523;BME280;31254;51.680;5.394;2024-02-26T00:19:52;99560.47;;;6.56;93.77
45523;BME280;31254;51.680;5.394;2024-02-26T00:22:20;99889.72;;;8.52;94.08
45523;BME280;31254;51.680;5.394;2024-02-26T00:24:48;99732.31;;;7.54;94.09
45523;BME280;31254;51.680;5.394;2024-02-26T00:27:15;99930.97;;;8.65;94.49
45523;BME280;31254;51.680;5.394;2024-02-26T00:29:42;99847.34;;;8.15;94.16
45523;BME280;31254;51.680;5.394;2024-02-26T00:32:09;99844.84;;;8.21;93.79
45523;BME280;31254;51.680;5.394;2024-02-26T00:34:35;99695.97;;;7.28;93.67
45523;BME280;31254;51.680;5.394;2024-02-26T00:37:02;99673.66;;;7.17;93.87
45523;BME280;31254;51.680;5.394;2024-02-26T00:39:29;99892.41;;;8.44;94.01
45523;BME280;31254;51.680;5.394;2024-02-26T00:41:55;99840.69;;;7.91;94.02
45523;BME280;31254;51.680;5.394;2024-02-26T00:44:22;99828.97;;;8.09;94.21
45523;BME280;31254;51.680;5.394;2024-02-26T00:46:49;99845.09;;;8.10;94.26
45523;BME280;31254;51.680;5.394;2024-02-26T00:49:16;99811.88;;;7.98;93.98
45523;BME280;31254;51.680;5.394;2024-02-26T00:51:43;99768.63;;;7.79;93.92
45523;BME280;31254;51.680;5.394;2024-02-26T00:54:09;99834.00;;;8.03;93.49
45523;BME280;31254;51.680;5.394;2024-02-26T00:56:46;99802.16;;;8.14;93.39
45523;BME280;31254;51.680;5.394;2024-02-26T00:59:14;99836.69;;;8.21;93.75
45523;BME280;31254;51.680;5.394;2024-02-26T01:01:41;99619.75;;;6.95;93.35
45523;BME280;31254;51.680;5.394;2024-02-26T01:04:08;99812.66;;;8.09;93.50
45523;BME280;31254;51.680;5.394;2024-02-26T01:06:49;99916.69;;;8.71;93.81
45523;BME280;31254;51.680;5.394;2024-02-26T01:09:29;99931.97;;;8.64;93.92
45523;BME280;31254;51.680;5.394;2024-02-26T01:11:57;99625.03;;;6.79;94.15
45523;BME280;31254;51.680;5.394;2024-02-26T01:14:23;99668.25;;;6.99;93.66
45523;BME280;31254;51.680;5.394;2024-02-26T01:16:51;99722.84;;;7.40;93.81
45523;BME280;31254;51.680;5.394;2024-02-26T01:19:22;99749.31;;;7.20;93.77
45523;BME280;31254;51.680;5.394;2024-02-26T01:21:50;99972.28;;;8.69;93.78
45523;BME280;31254;51.680;5.394;2024-02-26T01:24:18;99711.50;;;7.18;94.06
45523;BME280;31254;51.680;5.394;2024-02-26T01:26:46;99691.91;;;7.06;94.22
45523;BME280;31254;51.680;5.394;2024-02-26T01:29:14;99934.88;;;8.71;93.59
45523;BME280;31254;51.680;5.394;2024-02-26T01:31:41;99887.25;;;8.40;93.75
45523;BME280;31254;51.680;5.394;2024-02-26T01:34:09;99769.91;;;7.66;93.60
45523;BME280;31254;51.680;5.394;2024-02-26T01:36:36;99919.16;;;8.56;93.21
45523;BME280;31254;51.680;5.394;2024-02-26T01:41:52;99514.81;;;6.08;93.16
45523;BME280;31254;51.680;5.394;2024-02-26T01:46:54;99943.53;;;8.66;93.81
45523;BME280;31254;51.680;5.394;2024-02-26T01:51:56;99829.53;;;7.94;93.76
45523;BME280;31254;51.680;5.394;2024-02-26T01:54:24;99886.03;;;8.35;93.53
45523;BME280;31254;51.680;5.394;2024-02-26T01:56:51;99944.00;;;8.62;93.81
45523;BME280;31254;51.680;5.394;2024-02-26T01:59:18;99778.38;;;7.63;93.43
45523;BME280;31254;51.680;5.394;2024-02-26T02:01:50;99956.13;;;8.67;93.91
45523;BME280;31254;51.680;5.394;2024-02-26T02:04:36;99950.00;;;8.65;93.35
45523;BME280;31254;51.680;5.394;2024-02-26T02:07:20;99766.28;;;7.40;93.72
45523;BME280;31254;51.680;5.394;2024-02-26T02:10:02;99951.34;;;8.43;93.70
45523;BME280;31254;51.680;5.394;2024-02-26T02:12:30;99903.44;;;8.24;94.01
45523;BME280;31254;51.680;5.394;2024-02-26T02:15:00;99968.31;;;8.63;93.56
45523;BME280;31254;51.680;5.394;2024-02-26T02:17:28;99962.13;;;8.53;94.32
45523;BME280;31254;51.680;5.394;2024-02-26T02:19:55;99946.50;;;8.37;94.40
45523;BME280;31254;51.680;5.394;2024-02-26T02:22:21;99878.78;;;7.99;94.36
45523;BME280;31254;51.680;5.394;2024-02-26T02:24:52;99949.06;;;8.38;94.25
45523;BME280;31254;51.680;5.394;2024-02-26T02:27:19;99946.13;;;8.32;94.31
45523;BME280;31254;51.680;5.394;2024-02-26T02:29:47;99907.19;;;8.23;94.13
45523;BME280;31254;51.680;5.394;2024-02-26T02:32:15;99700.56;;;6.92;93.69
45523;BME280;31254;51.680;5.394;2024-02-26T02:34:43;99767.75;;;7.52;93.16
45523;BME280;31254;51.680;5.394;2024-02-26T02:37:11;99937.34;;;8.56;93.08
45523;BME280;31254;51.680;5.394;2024-02-26T02:39:37;99959.41;;;8.53;93.22
45523;BME280;31254;51.680;5.394;2024-02-26T02:42:04;99913.97;;;8.27;93.19
45523;BME280;31254;51.680;5.394;2024-02-26T02:44:33;99756.44;;;7.39;93.32
45523;BME280;31254;51.680;5.394;2024-02-26T02:47:00;99957.59;;;8.62;93.95
45523;BME280;31254;51.680;5.394;2024-02-26T02:49:28;99805.44;;;7.55;94.27
45523;BME280;31254;51.680;5.394;2024-02-26T02:52:08;99976.56;;;8.53;94.37
45523;BME280;31254;51.680;5.394;2024-02-26T02:54:42;99951.47;;;8.41;93.76
45523;BME280;31254;51.680;5.394;2024-02-26T02:57:09;99980.16;;;8.54;94.33
45523;BME280;31254;51.680;5.394;2024-02-26T02:59:37;99755.19;;;7.15;93.90
45523;BME280;31254;51.680;5.394;2024-02-26T03:02:05;99980.84;;;8.56;93.76
45523;BME280;31254;51.680;5.394;2024-02-26T03:04:33;99969.28;;;8.54;93.92
45523;BME280;31254;51.680;5.394;2024-02-26T03:07:00;99817.28;;;7.54;94.04
45523;BME280;31254;51.680;5.394;2024-02-26T03:09:27;99912.84;;;8.12;94.32
45523;BME280;31254;51.680;5.394;2024-02-26T03:11:54;99968.88;;;8.49;94.71
45523;BME280;31254;51.680;5.394;2024-02-26T03:14:21;99805.53;;;7.45;93.92
45523;BME280;31254;51.680;5.394;2024-02-26T03:16:48;99691.78;;;6.80;93.72
45523;BME280;31254;51.680;5.394;2024-02-26T03:19:15;99976.50;;;8.45;93.96
45523;BME280;31254;51.680;5.394;2024-02-26T03:21:43;99995.59;;;8.53;94.22
45523;BME280;31254;51.680;5.394;2024-02-26T03:24:10;99949.06;;;8.38;93.78
45523;BME280;31254;51.680;5.394;2024-02-26T03:26:38;99934.09;;;7.98;94.13
45523;BME280;31254;51.680;5.394;2024-02-26T03:29:05;99971.78;;;8.47;93.70
45523;BME280;31254;51.680;5.394;2024-02-26T03:31:32;99793.94;;;7.43;94.04
45523;BME280;31254;51.680;5.394;2024-02-26T03:33:59;99995.75;;;8.52;93.96
45523;BME280;31254;51.680;5.394;2024-02-26T03:36:25;99808.47;;;7.34;93.60
45523;BME280;31254;51.680;5.394;2024-02-26T03:38:53;99984.50;;;8.47;94.08
45523;BME280;31254;51.680;5.394;2024-02-26T03:41:20;99928.84;;;8.15;93.65
45523;BME280;31254;51.680;5.394;2024-02-26T03:43:47;99934.28;;;8.15;93.78
45523;BME280;31254;51.680;5.394;2024-02-26T03:46:13;99661.41;;;6.58;93.65
45523;BME280;31254;51.680;5.394;2024-02-26T03:48:43;99621.97;;;6.28;93.70
45523;BME280;31254;51.680;5.394;2024-02-26T03:51:10;99972.84;;;8.36;94.15
45523;BME280;31254;51.680;5.394;2024-02-26T03:53:39;99730.72;;;7.07;93.44
45523;BME280;31254;51.680;5.394;2024-02-26T03:56:06;99889.44;;;7.93;93.72
45523;BME280;31254;51.680;5.394;2024-02-26T03:58:33;99928.25;;;8.29;93.98
45523;BME280;31254;51.680;5.394;2024-02-26T04:01:00;99831.63;;;7.64;93.65
45523;BME280;31254;51.680;5.394;2024-02-26T04:03:27;99955.03;;;8.42;93.86
45523;BME280;31254;51.680;5.394;2024-02-26T04:05:53;99967.78;;;8.41;93.93
45523;BME280;31254;51.680;5.394;2024-02-26T04:08:21;99947.75;;;8.06;94.14
45523;BME280;31254;51.680;5.394;2024-02-26T04:10:47;99974.66;;;8.46;93.86
45523;BME280;31254;51.680;5.394;2024-02-26T04:13:14;99976.34;;;8.29;94.09
45523;BME280;31254;51.680;5.394;2024-02-26T04:15:41;99989.59;;;8.32;94.09
45523;BME280;31254;51.680;5.394;2024-02-26T04:18:08;99886.19;;;7.89;93.98
45523;BME280;31254;51.680;5.394;2024-02-26T04:20:35;99982.72;;;8.37;94.06
45523;BME280;31254;51.680;5.394;2024-02-26T04:23:03;99481.47;;;5.24;93.58
45523;BME280;31254;51.680;5.394;2024-02-26T04:25:29;99896.47;;;7.67;94.39
45523;BME280;31254;51.680;5.394;2024-02-26T04:27:56;99790.47;;;7.15;94.00
45523;BME280;31254;51.680;5.394;2024-02-26T04:30:23;99893.38;;;7.62;93.78
45523;BME280;31254;51.680;5.394;2024-02-26T04:32:50;99999.78;;;8.30;93.73
45523;BME280;31254;51.680;5.394;2024-02-26T04:35:17;99571.66;;;5.70;93.67
45523;BME280;31254;51.680;5.394;2024-02-26T04:37:44;100003.50;;;8.29;93.99
45523;BME280;31254;51.680;5.394;2024-02-26T04:40:24;99981.78;;;8.11;93.88
45523;BME280;31254;51.680;5.394;2024-02-26T04:42:51;99873.50;;;7.44;94.09
45523;BME280;31254;51.680;5.394;2024-02-26T04:45:18;99744.13;;;6.63;93.71
45523;BME280;31254;51.680;5.394;2024-02-26T04:47:45;99846.22;;;7.27;93.86
45523;BME280;31254;51.680;5.394;2024-02-26T04:50:11;99977.03;;;7.95;93.96
45523;BME280;31254;51.680;5.394;2024-02-26T04:52:38;99212.13;;;3.37;93.26
45523;BME280;31254;51.680;5.394;2024-02-26T04:55:17;99135.16;;;2.85;92.97
45523;BME280;31254;51.680;5.394;2024-02-26T05:00:30;99821.66;;;7.01;93.55
45523;BME280;31254;51.680;5.394;2024-02-26T05:02:57;99931.06;;;7.65;93.87
45523;BME280;31254;51.680;5.394;2024-02-26T05:05:24;99806.47;;;6.90;93.67
45523;BME280;31254;51.680;5.394;2024-02-26T05:08:05;99989.84;;;8.02;93.77
45523;BME280;31254;51.680;5.394;2024-02-26T05:10:47;100031.13;;;8.24;94.03
45523;BME280;31254;51.680;5.394;2024-02-26T05:13:29;99810.38;;;6.78;93.74
45523;BME280;31254;51.680;5.394;2024-02-26T05:15:58;99908.19;;;7.50;93.98
45523;BME280;31254;51.680;5.394;2024-02-26T05:18:39;100043.88;;;8.23;94.10
45523;BME280;31254;51.680;5.394;2024-02-26T05:21:07;99840.03;;;7.07;94.13
45523;BME280;31254;51.680;5.394;2024-02-26T05:23:34;100036.03;;;8.20;93.91
45523;BME280;31254;51.680;5.394;2024-02-26T05:26:00;99910.97;;;7.40;93.98
45523;BME280;31254;51.680;5.394;2024-02-26T05:28:27;99901.66;;;7.43;94.03
45523;BME280;31254;51.680;5.394;2024-02-26T05:30:53;99930.78;;;7.68;93.74
45523;BME280;31254;51.680;5.394;2024-02-26T05:33:20;99819.72;;;6.93;93.37
45523;BME280;31254;51.680;5.394;2024-02-26T05:35:47;99954.59;;;7.75;93.94
45523;BME280;31254;51.680;5.394;2024-02-26T05:38:14;99899.44;;;7.28;93.88
45523;BME280;31254;51.680;5.394;2024-02-26T05:40:40;100031.66;;;8.10;94.27
45523;BME280;31254;51.680;5.394;2024-02-26T05:43:07;100043.88;;;8.23;93.76
45523;BME280;31254;51.680;5.394;2024-02-26T05:45:33;99865.00;;;7.11;93.85
45523;BME280;31254;51.680;5.394;2024-02-26T05:48:00;99490.28;;;4.88;93.52
45523;BME280;31254;51.680;5.394;2024-02-26T05:50:27;100055.91;;;8.21;94.05
45523;BME280;31254;51.680;5.394;2024-02-26T05:52:54;99959.69;;;7.60;93.83
45523;BME280;31254;51.680;5.394;2024-02-26T05:55:20;99921.25;;;7.37;93.58
45523;BME280;31254;51.680;5.394;2024-02-26T05:57:47;99852.66;;;6.99;93.67
45523;BME280;31254;51.680;5.394;2024-02-26T06:00:16;99722.72;;;6.04;93.25
45523;BME280;31254;51.680;5.394;2024-02-26T06:02:43;100089.53;;;8.20;93.50
45523;BME280;31254;51.680;5.394;2024-02-26T06:05:09;100068.63;;;8.20;93.53
45523;BME280;31254;51.680;5.394;2024-02-26T06:07:36;99872.19;;;7.02;93.57
45523;BME280;31254;51.680;5.394;2024-02-26T06:10:03;100055.88;;;8.03;93.51
45523;BME280;31254;51.680;5.394;2024-02-26T06:12:31;100013.72;;;7.81;93.60
45523;BME280;31254;51.680;5.394;2024-02-26T06:14:59;99911.38;;;7.18;93.38
45523;BME280;31254;51.680;5.394;2024-02-26T06:17:28;99957.94;;;7.41;93.43
45523;BME280;31254;51.680;5.394;2024-02-26T06:19:54;99876.97;;;6.90;93.36
45523;BME280;31254;51.680;5.394;2024-02-26T06:22:21;100077.25;;;8.16;93.68
45523;BME280;31254;51.680;5.394;2024-02-26T06:24:49;99962.34;;;7.42;93.61
45523;BME280;31254;51.680;5.394;2024-02-26T06:29:59;99712.94;;;5.83;93.12
45523;BME280;31254;51.680;5.394;2024-02-26T06:35:07;99811.13;;;6.33;93.32
45523;BME280;31254;51.680;5.394;2024-02-26T06:40:11;99941.97;;;7.10;93.78
45523;BME280;31254;51.680;5.394;2024-02-26T06:42:38;100085.81;;;7.93;93.69
45523;BME280;31254;51.680;5.394;2024-02-26T06:45:05;99755.38;;;5.83;93.22
45523;BME280;31254;51.680;5.394;2024-02-26T06:47:32;100059.59;;;7.74;93.60
45523;BME280;31254;51.680;5.394;2024-02-26T06:50:05;100108.03;;;8.06;93.90
45523;BME280;31254;51.680;5.394;2024-02-26T06:52:47;100110.06;;;8.04;93.53
45523;BME280;31254;51.680;5.394;2024-02-26T06:55:28;99864.84;;;6.47;93.47
45523;BME280;31254;51.680;5.394;2024-02-26T06:58:32;100129.06;;;8.04;93.35
45523;BME280;31254;51.680;5.394;2024-02-26T07:01:14;99991.06;;;7.07;93.51
45523;BME280;31254;51.680;5.394;2024-02-26T07:03:58;100137.53;;;8.01;93.49
45523;BME280;31254;51.680;5.394;2024-02-26T07:06:38;100054.22;;;7.37;93.40
45523;BME280;31254;51.680;5.394;2024-02-26T07:09:19;100138.84;;;7.97;94.00
45523;BME280;31254;51.680;5.394;2024-02-26T07:14:47;100150.56;;;7.98;93.62
45523;BME280;31254;51.680;5.394;2024-02-26T07:17:15;100098.84;;;7.62;93.75
45523;BME280;31254;51.680;5.394;2024-02-26T07:19:42;100149.78;;;7.78;93.90
45523;BME280;31254;51.680;5.394;2024-02-26T07:24:52;99966.63;;;6.79;93.25
45523;BME280;31254;51.680;5.394;2024-02-26T07:27:19;100042.66;;;6.77;93.87
45523;BME280;31254;51.680;5.394;2024-02-26T07:29:48;100063.53;;;7.34;93.82
45523;BME280;31254;51.680;5.394;2024-02-26T07:32:14;100045.31;;;7.07;93.77
45523;BME280;31254;51.680;5.394;2024-02-26T07:34:42;100073.66;;;7.22;94.26
45523;BME280;31254;51.680;5.394;2024-02-26T07:37:11;99357.88;;;2.95;93.69
45523;BME280;31254;51.680;5.394;2024-02-26T07:39:38;100033.78;;;7.05;93.65
45523;BME280;31254;51.680;5.394;2024-02-26T07:42:04;99964.50;;;6.73;93.34
45523;BME280;31254;51.680;5.394;2024-02-26T07:44:32;100095.59;;;7.48;93.49
45523;BME280;31254;51.680;5.394;2024-02-26T07:46:59;99971.19;;;6.69;93.84
45523;BME280;31254;51.680;5.394;2024-02-26T07:49:26;100171.91;;;7.83;93.34
45523;BME280;31254;51.680;5.394;2024-02-26T07:51:53;99621.66;;;4.31;93.45
45523;BME280;31254;51.680;5.394;2024-02-26T07:54:21;99918.81;;;6.21;93.13
45523;BME280;31254;51.680;5.394;2024-02-26T07:56:50;100092.09;;;7.28;93.31
45523;BME280;31254;51.680;5.394;2024-02-26T07:59:19;99937.19;;;6.27;93.45
45523;BME280;31254;51.680;5.394;2024-02-26T08:02:07;100154.81;;;7.73;93.17
45523;BME280;31254;51.680;5.394;2024-02-26T08:21:05;100166.56;;;7.63;93.55
45523;BME280;31254;51.680;5.394;2024-02-26T08:31:30;100237.63;;;7.96;93.31
45523;BME280;31254;51.680;5.394;2024-02-26T08:33:57;100236.63;;;7.97;93.38
45523;BME280;31254;51.680;5.394;2024-02-26T08:44:31;99979.25;;;6.12;93.21
45523;BME280;31254;51.680;5.394;2024-02-26T08:49:33;99887.16;;;5.53;93.23
45523;BME280;31254;51.680;5.394;2024-02-26T08:51:59;100237.38;;;7.80;93.12
45523;BME280;31254;51.680;5.394;2024-02-26T09:02:32;100244.97;;;7.76;93.43
45523;BME280;31254;51.680;5.394;2024-02-26T09:04:58;100271.84;;;7.79;93.51
45523;BME280;31254;51.680;5.394;2024-02-26T09:07:25;100170.91;;;7.27;93.17
45523;BME280;31254;51.680;5.394;2024-02-26T09:09:53;100279.69;;;7.92;93.31
45523;BME280;31254;51.680;5.394;2024-02-26T09:12:20;100102.44;;;6.76;93.34
45523;BME280;31254;51.680;5.394;2024-02-26T09:14:47;100074.06;;;6.51;93.50
45523;BME280;31254;51.680;5.394;2024-02-26T09:17:14;99980.47;;;5.78;92.97
45523;BME280;31254;51.680;5.394;2024-02-26T09:19:41;100307.69;;;7.93;93.50
45523;BME280;31254;51.680;5.394;2024-02-26T09:22:09;99927.75;;;5.63;93.03
45523;BME280;31254;51.680;5.394;2024-02-26T09:24:36;99957.53;;;5.82;93.18
45523;BME280;31254;51.680;5.394;2024-02-26T09:27:03;100121.84;;;6.71;93.63
45523;BME280;31254;51.680;5.394;2024-02-26T09:29:32;100166.22;;;7.00;93.63
45523;BME280;31254;51.680;5.394;2024-02-26T09:31:59;99414.19;;;2.36;92.58
45523;BME280;31254;51.680;5.394;2024-02-26T09:34:29;100030.84;;;6.10;93.26
45523;BME280;31254;51.680;5.394;2024-02-26T09:36:56;100061.78;;;6.17;93.35
45523;BME280;31254;51.680;5.394;2024-02-26T09:39:33;100269.31;;;7.39;93.44
45523;BME280;31254;51.680;5.394;2024-02-26T09:42:04;100004.28;;;5.94;93.28
45523;BME280;31254;51.680;5.394;2024-02-26T09:44:33;100345.84;;;7.91;93.14
45523;BME280;31254;51.680;5.394;2024-02-26T09:47:04;99974.44;;;5.55;93.04
45523;BME280;31254;51.680;5.394;2024-02-26T09:49:32;100324.28;;;7.70;93.97
45523;BME280;31254;51.680;5.394;2024-02-26T09:59:59;100241.16;;;7.20;93.49
45523;BME280;31254;51.680;5.394;2024-02-26T10:05:07;100294.72;;;7.47;93.56
45523;BME280;31254;51.680;5.394;2024-02-26T10:07:37;100373.44;;;7.96;93.42
45523;BME280;31254;51.680;5.394;2024-02-26T10:12:39;99844.84;;;4.72;93.26
45523;BME280;31254;51.680;5.394;2024-02-26T10:15:06;100361.47;;;7.79;93.74
45523;BME280;31254;51.680;5.394;2024-02-26T10:20:18;100397.88;;;7.96;93.71
45523;BME280;31254;51.680;5.394;2024-02-26T10:25:30;99498.16;;;2.51;93.51
45523;BME280;31254;51.680;5.394;2024-02-26T10:28:02;99532.69;;;2.67;93.08
45523;BME280;31254;51.680;5.394;2024-02-26T10:30:29;100414.88;;;7.98;93.88
45523;BME280;31254;51.680;5.394;2024-02-26T10:32:57;100063.22;;;5.71;93.26
45523;BME280;31254;51.680;5.394;2024-02-26T10:35:38;100344.56;;;7.56;93.49
45523;BME280;31254;51.680;5.394;2024-02-26T10:39:18;100456.66;;;7.97;93.66
45523;BME280;31254;51.680;5.394;2024-02-26T10:42:43;100411.72;;;7.54;93.63
45523;BME280;31254;51.680;5.394;2024-02-26T10:46:24;100293.00;;;7.07;94.05
45523;BME280;31254;51.680;5.394;2024-02-26T10:50:07;100293.53;;;7.01;93.71
45523;BME280;31254;51.680;5.394;2024-02-26T10:53:47;100398.88;;;7.56;94.46
45523;BME280;31254;51.680;5.394;2024-02-26T10:57:29;100433.75;;;7.71;94.27
45523;BME280;31254;51.680;5.394;2024-02-26T11:00:50;100114.38;;;5.74;93.74
45523;BME280;31254;51.680;5.394;2024-02-26T11:03:18;100381.84;;;7.35;94.07
45523;BME280;31254;51.680;5.394;2024-02-26T11:08:35;99773.13;;;3.34;93.89
45523;BME280;31254;51.680;5.394;2024-02-26T11:17:00;100453.78;;;7.69;94.44
45523;BME280;31254;51.680;5.394;2024-02-26T11:19:27;100476.22;;;7.72;94.35
45523;BME280;31254;51.680;5.394;2024-02-26T11:24:31;100192.75;;;6.07;94.39
45523;BME280;31254;51.680;5.394;2024-02-26T11:27:02;100196.56;;;6.04;94.07
45523;BME280;31254;51.680;5.394;2024-02-26T11:45:59;100535.28;;;7.89;94.36
45523;BME280;31254;51.680;5.394;2024-02-26T11:51:15;100250.63;;;6.15;93.90
45523;BME280;31254;51.680;5.394;2024-02-26T11:59:37;100492.34;;;7.73;94.51
45523;BME280;31254;51.680;5.394;2024-02-26T12:02:04;100523.25;;;7.92;94.55
45523;BME280;31254;51.680;5.394;2024-02-26T12:04:33;99962.38;;;4.36;94.10
45523;BME280;31254;51.680;5.394;2024-02-26T12:12:31;100366.16;;;6.88;94.77
45523;BME280;31254;51.680;5.394;2024-02-26T12:17:34;100548.44;;;8.03;94.03
45523;BME280;31254;51.680;5.394;2024-02-26T12:20:21;100537.84;;;7.91;93.70
45523;BME280;31254;51.680;5.394;2024-02-26T12:22:49;100519.50;;;7.73;93.99
45523;BME280;31254;51.680;5.394;2024-02-26T12:30:44;99775.53;;;2.72;93.12
45523;BME280;31254;51.680;5.394;2024-02-26T12:33:25;99948.81;;;4.26;93.66
45523;BME280;31254;51.680;5.394;2024-02-26T12:36:08;100427.94;;;7.15;94.15
45523;BME280;31254;51.680;5.394;2024-02-26T12:38:34;100417.06;;;7.05;94.19
45523;BME280;31254;51.680;5.394;2024-02-26T12:41:06;100538.38;;;7.75;93.95
45523;BME280;31254;51.680;5.394;2024-02-26T12:51:51;100271.00;;;6.10;94.18
45523;BME280;31254;51.680;5.394;2024-02-26T12:54:57;100606.22;;;8.05;94.15
45523;BME280;31254;51.680;5.394;2024-02-26T13:00:56;100606.22;;;8.05;94.22
45523;BME280;31254;51.680;5.394;2024-02-26T13:03:59;99679.56;;;2.38;93.37
45523;BME280;31254;51.680;5.394;2024-02-26T13:06:53;99907.78;;;3.79;93.88
45523;BME280;31254;51.680;5.394;2024-02-26T13:10:29;100050.91;;;4.53;93.92
45523;BME280;31254;51.680;5.394;2024-02-26T13:14:02;100510.69;;;7.30;94.45
45523;BME280;31254;51.680;5.394;2024-02-26T13:16:54;100183.19;;;5.29;94.47
45523;BME280;31254;51.680;5.394;2024-02-26T13:19:49;100639.63;;;7.96;94.44
45523;BME280;31254;51.680;5.394;2024-02-26T13:41:43;100519.16;;;6.85;94.91
45523;BME280;31254;51.680;5.394;2024-02-26T13:47:00;100681.69;;;7.92;95.11
45523;BME280;31254;51.680;5.394;2024-02-26T13:49:26;100650.72;;;7.74;95.20
45523;BME280;31254;51.680;5.394;2024-02-26T14:05:01;100739.31;;;7.96;95.17
45523;BME280;31254;51.680;5.394;2024-02-26T14:18:10;100070.91;;;3.86;94.16
45523;BME280;31254;51.680;5.394;2024-02-26T14:21:31;100401.44;;;5.94;94.77
45523;BME280;31254;51.680;5.394;2024-02-26T14:23:58;100736.41;;;7.87;95.18
45523;BME280;31254;51.680;5.394;2024-02-26T14:26:24;100687.56;;;7.66;95.36
45523;BME280;31254;51.680;5.394;2024-02-26T14:28:51;100442.56;;;6.20;95.18
45523;BME280;31254;51.680;5.394;2024-02-26T14:31:18;100645.41;;;7.41;95.44
45523;BME280;31254;51.680;5.394;2024-02-26T14:36:26;100351.56;;;5.54;94.86
45523;BME280;31254;51.680;5.394;2024-02-26T14:38:53;99808.75;;;2.16;94.73
45523;BME280;31254;51.680;5.394;2024-02-26T14:43:58;100195.22;;;4.39;94.93
45523;BME280;31254;51.680;5.394;2024-02-26T14:54:12;99819.53;;;2.38;94.20
45523;BME280;31254;51.680;5.394;2024-02-26T14:59:14;100380.59;;;5.73;94.44
45523;BME280;31254;51.680;5.394;2024-02-26T15:01:42;100718.72;;;7.72;94.88
45523;BME280;31254;51.680;5.394;2024-02-26T15:04:11;99860.91;;;2.49;94.38
45523;BME280;31254;51.680;5.394;2024-02-26T15:14:37;100713.63;;;7.58;94.57
45523;BME280;31254;51.680;5.394;2024-02-26T15:17:05;100732.59;;;7.48;94.78
45523;BME280;31254;51.680;5.394;2024-02-26T15:22:25;100333.53;;;5.32;94.04
45523;BME280;31254;51.680;5.394;2024-02-26T15:27:28;100534.72;;;5.97;94.69
45523;BME280;31254;51.680;5.394;2024-02-26T15:32:30;100321.06;;;5.08;94.09
45523;BME280;31254;51.680;5.394;2024-02-26T15:34:57;100864.78;;;8.11;94.99
45523;BME280;31254;51.680;5.394;2024-02-26T15:40:03;100048.88;;;2.90;94.60
45523;BME280;31254;51.680;5.394;2024-02-26T15:45:05;100016.56;;;3.13;94.77
45523;BME280;31254;51.680;5.394;2024-02-26T15:58:31;100574.59;;;5.95;94.86
45523;BME280;31254;51.680;5.394;2024-02-26T16:01:18;100296.38;;;4.24;94.69
45523;BME280;31254;51.680;5.394;2024-02-26T16:11:57;100725.16;;;7.08;95.36
45523;BME280;31254;51.680;5.394;2024-02-26T16:17:34;100897.91;;;8.04;95.25
45523;BME280;31254;51.680;5.394;2024-02-26T16:25:18;100904.22;;;8.05;95.17
45523;BME280;31254;51.680;5.394;2024-02-26T16:27:46;100483.53;;;5.28;95.23
45523;BME280;31254;51.680;5.394;2024-02-26T16:30:34;100714.88;;;6.90;95.62
45523;BME280;31254;51.680;5.394;2024-02-26T16:33:55;100791.16;;;7.29;95.39
45523;BME280;31254;51.680;5.394;2024-02-26T16:37:18;100927.09;;;8.02;95.29
45523;BME280;31254;51.680;5.394;2024-02-26T16:40:20;100906.50;;;7.88;95.47
45523;BME280;31254;51.680;5.394;2024-02-26T16:42:46;100885.38;;;7.71;95.73
45523;BME280;31254;51.680;5.394;2024-02-26T16:53:11;100928.19;;;8.00;95.60
45523;BME280;31254;51.680;5.394;2024-02-26T16:55:38;99986.34;;;2.40;94.96
45523;BME280;31254;51.680;5.394;2024-02-26T17:24:51;100111.03;;;2.41;94.63
45523;BME280;31254;51.680;5.394;2024-02-26T17:27:25;101017.81;;;8.11;95.31
45523;BME280;31254;51.680;5.394;2024-02-26T17:29:54;100489.34;;;5.01;95.45
45523;BME280;31254;51.680;5.394;2024-02-26T17:43:02;100110.56;;;2.47;94.93
45523;BME280;31254;51.680;5.394;2024-02-26T17:45:28;101062.88;;;7.70;95.67
45523;BME280;31254;51.680;5.394;2024-02-26T17:48:06;100951.28;;;7.29;95.80
45523;BME280;31254;51.680;5.394;2024-02-26T17:50:37;100492.03;;;4.20;95.42
45523;BME280;31254;51.680;5.394;2024-02-26T17:55:42;101083.44;;;7.95;96.00
45523;BME280;31254;51.680;5.394;2024-02-26T18:00:56;101062.25;;;7.78;96.18
45523;BME280;31254;51.680;5.394;2024-02-26T18:03:23;101093.59;;;7.82;96.09
45523;BME280;31254;51.680;5.394;2024-02-26T18:05:50;100763.53;;;5.92;97.16
45523;BME280;31254;51.680;5.394;2024-02-26T18:08:16;101107.47;;;8.11;96.50
45523;BME280;31254;51.680;5.394;2024-02-26T18:10:48;101043.41;;;7.54;95.73
45523;BME280;31254;51.680;5.394;2024-02-26T18:13:15;100954.28;;;6.92;95.64
45523;BME280;31254;51.680;5.394;2024-02-26T18:15:41;100990.25;;;7.17;95.35
45523;BME280;31254;51.680;5.394;2024-02-26T18:18:08;101075.59;;;7.69;95.49
45523;BME280;31254;51.680;5.394;2024-02-26T18:20:35;101144.78;;;8.09;95.57
45523;BME280;31254;51.680;5.394;2024-02-26T18:23:05;101140.47;;;8.06;95.29
45523;BME280;31254;51.680;5.394;2024-02-26T18:25:32;100888.34;;;6.47;94.33
45523;BME280;31254;51.680;5.394;2024-02-26T18:27:59;100545.81;;;4.23;93.56
45523;BME280;31254;51.680;5.394;2024-02-26T18:30:36;101079.56;;;7.43;94.18
45523;BME280;31254;51.680;5.394;2024-02-26T18:33:04;101137.81;;;7.84;94.63
45523;BME280;31254;51.680;5.394;2024-02-26T18:35:34;100668.34;;;4.82;93.80
45523;BME280;31254;51.680;5.394;2024-02-26T18:38:00;101189.00;;;8.00;94.40
45523;BME280;31254;51.680;5.394;2024-02-26T18:40:31;100897.41;;;6.23;94.36